sensor_id;sensor_type;location;lat;lon;timestamp;pressure;altitude;pressure_sealevel;temperature;humidity
61026;BME280;46911;32.650;-16.902;2023-01-31T00:00:50;102264.50;;;13.63;68.64
61026;BME280;46911;32.650;-16.902;2023-01-31T00:02:54;102259.06;;;13.64;69.34
61026;BME280;46911;32.650;-16.902;2023-01-31T00:04:55;102273.06;;;13.69;69.20
61026;BME280;46911;32.650;-16.902;2023-01-31T00:06:55;102267.69;;;13.69;69.04
61026;BME280;46911;32.650;-16.902;2023-01-31T00:09:00;102278.94;;;13.76;69.09
61026;BME280;46911;32.650;-16.902;2023-01-31T00:11:01;102264.59;;;13.77;68.78
61026;BME280;46911;32.650;-16.902;2023-01-31T00:13:05;102253.19;;;13.73;68.95
61026;BME280;46911;32.650;-16.902;2023-01-31T00:15:08;102250.75;;;13.69;68.93
61026;BME280;46911;32.650;-16.902;2023-01-31T00:17:09;102257.84;;;13.70;68.92
61026;BME280;46911;32.650;-16.902;2023-01-31T00:19:10;102281.38;;;13.81;69.33
61026;BME280;46911;32.650;-16.902;2023-01-31T00:23:13;102271.09;;;13.73;70.30
61026;BME280;46911;32.650;-16.902;2023-01-31T00:25:19;102267.19;;;13.63;70.53
61026;BME280;46911;32.650;-16.902;2023-01-31T00:27:20;102259.22;;;13.61;70.69
61026;BME280;46911;32.650;-16.902;2023-01-31T00:29:22;102260.44;;;13.71;69.77
61026;BME280;46911;32.650;-16.902;2023-01-31T00:31:25;102263.88;;;13.89;68.44
61026;BME280;46911;32.650;-16.902;2023-01-31T00:33:26;102271.34;;;13.84;68.27
61026;BME280;46911;32.650;-16.902;2023-01-31T00:35:32;102268.41;;;13.89;68.28
61026;BME280;46911;32.650;-16.902;2023-01-31T00:37:33;102257.66;;;13.73;67.82
61026;BME280;46911;32.650;-16.902;2023-01-31T00:39:36;102249.81;;;13.70;67.70
61026;BME280;46911;32.650;-16.902;2023-01-31T00:41:37;102250.75;;;13.69;67.78
61026;BME280;46911;32.650;-16.902;2023-01-31T00:43:41;102272.38;;;13.82;68.04
61026;BME280;46911;32.650;-16.902;2023-01-31T00:45:46;102268.56;;;13.86;68.57
61026;BME280;46911;32.650;-16.902;2023-01-31T00:47:51;102247.03;;;13.87;68.62
61026;BME280;46911;32.650;-16.902;2023-01-31T00:49:55;102246.09;;;13.88;68.13
61026;BME280;46911;32.650;-16.902;2023-01-31T00:51:56;102252.31;;;13.89;68.11
61026;BME280;46911;32.650;-16.902;2023-01-31T00:53:59;102242.88;;;13.82;68.14
61026;BME280;46911;32.650;-16.902;2023-01-31T00:56:14;102240.19;;;13.82;68.25
61026;BME280;46911;32.650;-16.902;2023-01-31T00:58:18;102251.34;;;13.90;68.10
61026;BME280;46911;32.650;-16.902;2023-01-31T01:00:19;102246.75;;;13.92;67.88
61026;BME280;46911;32.650;-16.902;2023-01-31T01:02:22;102226.59;;;13.85;67.90
61026;BME280;46911;32.650;-16.902;2023-01-31T01:04:24;102243.28;;;14.06;67.58
61026;BME280;46911;32.650;-16.902;2023-01-31T01:06:26;102228.94;;;13.91;67.87
61026;BME280;46911;32.650;-16.902;2023-01-31T01:08:28;102232.03;;;13.99;66.95
61026;BME280;46911;32.650;-16.902;2023-01-31T01:10:32;102235.31;;;14.04;66.22
61026;BME280;46911;32.650;-16.902;2023-01-31T01:12:35;102233.94;;;13.97;65.83
61026;BME280;46911;32.650;-16.902;2023-01-31T01:14:38;102238.75;;;14.06;65.79
61026;BME280;46911;32.650;-16.902;2023-01-31T01:16:42;102229.16;;;14.02;65.38
61026;BME280;46911;32.650;-16.902;2023-01-31T01:18:43;102237.91;;;14.06;65.39
61026;BME280;46911;32.650;-16.902;2023-01-31T01:20:46;102242.50;;;14.04;65.56
61026;BME280;46911;32.650;-16.902;2023-01-31T01:22:47;102238.88;;;14.05;65.32
61026;BME280;46911;32.650;-16.902;2023-01-31T01:24:49;102221.13;;;14.02;64.51
61026;BME280;46911;32.650;-16.902;2023-01-31T01:26:53;102233.59;;;14.03;64.49
61026;BME280;46911;32.650;-16.902;2023-01-31T01:28:55;102239.56;;;14.09;64.72
61026;BME280;46911;32.650;-16.902;2023-01-31T01:30:56;102216.09;;;13.96;65.17
61026;BME280;46911;32.650;-16.902;2023-01-31T01:32:59;102216.09;;;13.96;64.58
61026;BME280;46911;32.650;-16.902;2023-01-31T01:35:01;102235.94;;;14.10;64.90
61026;BME280;46911;32.650;-16.902;2023-01-31T01:37:02;102232.34;;;14.09;65.44
61026;BME280;46911;32.650;-16.902;2023-01-31T01:39:11;102233.59;;;14.03;64.67
61026;BME280;46911;32.650;-16.902;2023-01-31T01:41:16;102236.53;;;13.99;65.66
61026;BME280;46911;32.650;-16.902;2023-01-31T01:43:17;102236.69;;;14.12;64.50
61026;BME280;46911;32.650;-16.902;2023-01-31T01:45:18;102233.59;;;14.03;64.88
61026;BME280;46911;32.650;-16.902;2023-01-31T01:49:36;102235.75;;;13.97;64.23
61026;BME280;46911;32.650;-16.902;2023-01-31T01:51:41;102233.94;;;13.97;63.97
61026;BME280;46911;32.650;-16.902;2023-01-31T01:53:45;102216.38;;;13.92;63.01
61026;BME280;46911;32.650;-16.902;2023-01-31T01:57:59;102228.28;;;14.18;63.76
61026;BME280;46911;32.650;-16.902;2023-01-31T02:02:15;102205.56;;;13.93;62.62
61026;BME280;46911;32.650;-16.902;2023-01-31T02:04:23;102205.84;;;13.88;62.83
61026;BME280;46911;32.650;-16.902;2023-01-31T02:06:24;102220.72;;;13.94;63.14
61026;BME280;46911;32.650;-16.902;2023-01-31T02:08:29;102224.44;;;13.92;63.69
61026;BME280;46911;32.650;-16.902;2023-01-31T02:11:00;102227.22;;;13.90;64.15
61026;BME280;46911;32.650;-16.902;2023-01-31T02:13:01;102207.50;;;13.91;65.93
61026;BME280;46911;32.650;-16.902;2023-01-31T02:15:05;102202.13;;;13.91;64.69
61026;BME280;46911;32.650;-16.902;2023-01-31T02:17:14;102218.03;;;13.94;63.90
61026;BME280;46911;32.650;-16.902;2023-01-31T02:19:45;102212.91;;;13.89;63.33
61026;BME280;46911;32.650;-16.902;2023-01-31T02:21:53;102216.09;;;13.96;62.84
61026;BME280;46911;32.650;-16.902;2023-01-31T02:34:02;102218.13;;;13.93;61.94
61026;BME280;46911;32.650;-16.902;2023-01-31T02:50:00;102226.38;;;13.73;64.62
61026;BME280;46911;32.650;-16.902;2023-01-31T02:52:20;102221.34;;;13.67;65.81
61026;BME280;46911;32.650;-16.902;2023-01-31T02:54:32;102222.56;;;13.62;66.43
61026;BME280;46911;32.650;-16.902;2023-01-31T02:56:54;102222.06;;;13.55;66.66
61026;BME280;46911;32.650;-16.902;2023-01-31T03:01:01;102210.78;;;13.32;67.17
61026;BME280;46911;32.650;-16.902;2023-01-31T03:03:11;102219.66;;;13.33;67.14
61026;BME280;46911;32.650;-16.902;2023-01-31T03:05:15;102219.16;;;13.26;67.42
61026;BME280;46911;32.650;-16.902;2023-01-31T03:07:19;102201.94;;;13.14;67.64
61026;BME280;46911;32.650;-16.902;2023-01-31T03:09:50;102220.84;;;13.11;68.09
61026;BME280;46911;32.650;-16.902;2023-01-31T03:14:35;102213.09;;;12.89;69.02
61026;BME280;46911;32.650;-16.902;2023-01-31T03:16:58;102201.50;;;12.72;69.54
61026;BME280;46911;32.650;-16.902;2023-01-31T03:19:26;102198.69;;;12.58;69.90
61026;BME280;46911;32.650;-16.902;2023-01-31T03:21:36;102196.72;;;12.62;69.28
61026;BME280;46911;32.650;-16.902;2023-01-31T03:23:48;102202.94;;;12.62;69.08
61026;BME280;46911;32.650;-16.902;2023-01-31T03:25:51;102201.94;;;12.47;69.68
61026;BME280;46911;32.650;-16.902;2023-01-31T03:27:56;102183.28;;;12.28;70.19
61026;BME280;46911;32.650;-16.902;2023-01-31T03:30:07;102193.53;;;12.20;70.85
61026;BME280;46911;32.650;-16.902;2023-01-31T03:32:29;102186.56;;;11.98;71.08
61026;BME280;46911;32.650;-16.902;2023-01-31T03:34:35;102200.31;;;11.91;71.54
61026;BME280;46911;32.650;-16.902;2023-01-31T03:42:06;102201.09;;;11.56;73.33
61026;BME280;46911;32.650;-16.902;2023-01-31T03:44:24;102196.97;;;11.49;72.93
61026;BME280;46911;32.650;-16.902;2023-01-31T03:46:48;102194.09;;;11.53;74.07
61026;BME280;46911;32.650;-16.902;2023-01-31T03:48:53;102187.38;;;11.45;74.21
61026;BME280;46911;32.650;-16.902;2023-01-31T03:50:58;102187.16;;;11.30;74.34
61026;BME280;46911;32.650;-16.902;2023-01-31T03:53:12;102192.66;;;11.27;74.76
61026;BME280;46911;32.650;-16.902;2023-01-31T03:55:19;102188.00;;;11.13;75.02
61026;BME280;46911;32.650;-16.902;2023-01-31T03:57:43;102183.31;;;11.18;74.64
61026;BME280;46911;32.650;-16.902;2023-01-31T03:59:48;102192.31;;;11.16;74.21
61026;BME280;46911;32.650;-16.902;2023-01-31T04:02:00;102195.19;;;11.11;74.01
61026;BME280;46911;32.650;-16.902;2023-01-31T04:04:11;102196.34;;;11.05;74.04
61026;BME280;46911;32.650;-16.902;2023-01-31T04:06:16;102169.50;;;10.89;74.21
61026;BME280;46911;32.650;-16.902;2023-01-31T04:08:17;102166.44;;;10.78;74.13
61026;BME280;46911;32.650;-16.902;2023-01-31T04:10:26;102178.19;;;10.74;74.82
61026;BME280;46911;32.650;-16.902;2023-01-31T04:12:34;102180.25;;;10.67;75.08
61026;BME280;46911;32.650;-16.902;2023-01-31T04:14:36;102184.81;;;10.65;74.97
61026;BME280;46911;32.650;-16.902;2023-01-31T04:16:37;102195.63;;;10.62;75.16
61026;BME280;46911;32.650;-16.902;2023-01-31T04:18:38;102176.56;;;10.51;75.11
61026;BME280;46911;32.650;-16.902;2023-01-31T04:20:38;102191.41;;;10.57;74.64
61026;BME280;46911;32.650;-16.902;2023-01-31T04:22:40;102195.03;;;10.55;74.13
61026;BME280;46911;32.650;-16.902;2023-01-31T04:24:43;102192.56;;;10.51;73.96
61026;BME280;46911;32.650;-16.902;2023-01-31T04:26:46;102185.69;;;10.45;74.40
61026;BME280;46911;32.650;-16.902;2023-01-31T04:28:50;102181.50;;;10.40;74.14
61026;BME280;46911;32.650;-16.902;2023-01-31T04:30:52;102188.44;;;10.44;73.28
61026;BME280;46911;32.650;-16.902;2023-01-31T04:32:56;102192.72;;;10.48;72.94
61026;BME280;46911;32.650;-16.902;2023-01-31T04:34:57;102183.75;;;10.49;72.51
61026;BME280;46911;32.650;-16.902;2023-01-31T04:36:58;102184.88;;;10.43;72.74
61026;BME280;46911;32.650;-16.902;2023-01-31T04:38:59;102182.22;;;10.43;72.76
61026;BME280;46911;32.650;-16.902;2023-01-31T04:41:03;102181.22;;;10.46;73.20
61026;BME280;46911;32.650;-16.902;2023-01-31T04:43:04;102177.63;;;10.47;72.66
61026;BME280;46911;32.650;-16.902;2023-01-31T04:45:05;102163.03;;;10.35;72.73
61026;BME280;46911;32.650;-16.902;2023-01-31T04:47:09;102174.38;;;10.40;72.63
61026;BME280;46911;32.650;-16.902;2023-01-31T04:49:10;102169.22;;;10.35;72.38
61026;BME280;46911;32.650;-16.902;2023-01-31T04:51:10;102148.81;;;10.34;71.30
61026;BME280;46911;32.650;-16.902;2023-01-31T04:53:14;102157.72;;;10.33;71.34
61026;BME280;46911;32.650;-16.902;2023-01-31T04:55:18;102152.34;;;10.35;70.80
61026;BME280;46911;32.650;-16.902;2023-01-31T04:57:19;102161.09;;;10.38;70.81
61026;BME280;46911;32.650;-16.902;2023-01-31T04:59:20;102161.09;;;10.38;70.46
61026;BME280;46911;32.650;-16.902;2023-01-31T05:01:21;102173.22;;;10.46;70.41
61026;BME280;46911;32.650;-16.902;2023-01-31T05:03:24;102171.38;;;10.48;70.14
61026;BME280;46911;32.650;-16.902;2023-01-31T05:05:25;102158.88;;;10.48;69.92
61026;BME280;46911;32.650;-16.902;2023-01-31T05:07:28;102162.41;;;10.49;69.99
61026;BME280;46911;32.650;-16.902;2023-01-31T05:09:29;102145.03;;;10.40;70.16
61026;BME280;46911;32.650;-16.902;2023-01-31T05:11:33;102160.94;;;10.42;70.46
61026;BME280;46911;32.650;-16.902;2023-01-31T05:13:36;102160.94;;;10.42;70.78
61026;BME280;46911;32.650;-16.902;2023-01-31T05:15:42;102148.91;;;10.31;71.35
61026;BME280;46911;32.650;-16.902;2023-01-31T05:17:53;102147.13;;;10.32;71.84
61026;BME280;46911;32.650;-16.902;2023-01-31T05:20:03;102151.53;;;10.33;72.13
61026;BME280;46911;32.650;-16.902;2023-01-31T05:22:06;102157.72;;;10.33;72.35
61026;BME280;46911;32.650;-16.902;2023-01-31T05:24:10;102141.06;;;10.28;72.08
61026;BME280;46911;32.650;-16.902;2023-01-31T05:26:17;102148.81;;;10.34;71.89
61026;BME280;46911;32.650;-16.902;2023-01-31T05:28:20;102161.25;;;10.34;72.08
61026;BME280;46911;32.650;-16.902;2023-01-31T05:30:21;102152.53;;;10.30;72.48
61026;BME280;46911;32.650;-16.902;2023-01-31T05:32:26;102151.78;;;10.27;72.45
61026;BME280;46911;32.650;-16.902;2023-01-31T05:34:27;102162.41;;;10.28;72.09
61026;BME280;46911;32.650;-16.902;2023-01-31T05:36:30;102152.78;;;10.24;72.09
61026;BME280;46911;32.650;-16.902;2023-01-31T05:38:34;102151.13;;;10.21;71.72
61026;BME280;46911;32.650;-16.902;2023-01-31T05:40:35;102155.88;;;10.35;72.00
61026;BME280;46911;32.650;-16.902;2023-01-31T05:42:36;102146.31;;;10.30;71.68
61026;BME280;46911;32.650;-16.902;2023-01-31T05:44:37;102141.69;;;10.35;71.90
61026;BME280;46911;32.650;-16.902;2023-01-31T05:46:43;102139.75;;;10.38;71.94
61026;BME280;46911;32.650;-16.902;2023-01-31T05:48:44;102142.94;;;10.47;71.21
61026;BME280;46911;32.650;-16.902;2023-01-31T05:50:48;102145.47;;;10.50;71.40
61026;BME280;46911;32.650;-16.902;2023-01-31T05:52:56;102157.47;;;10.60;71.49
61026;BME280;46911;32.650;-16.902;2023-01-31T05:55:02;102158.13;;;10.65;71.38
61026;BME280;46911;32.650;-16.902;2023-01-31T05:57:03;102150.06;;;10.67;71.95
61026;BME280;46911;32.650;-16.902;2023-01-31T05:59:04;102141.53;;;10.59;72.12
61026;BME280;46911;32.650;-16.902;2023-01-31T06:01:05;102151.13;;;10.63;72.13
61026;BME280;46911;32.650;-16.902;2023-01-31T06:03:09;102157.53;;;10.59;72.56
61026;BME280;46911;32.650;-16.902;2023-01-31T06:05:10;102140.06;;;10.51;72.75
61026;BME280;46911;32.650;-16.902;2023-01-31T06:07:14;102150.31;;;10.61;72.27
61026;BME280;46911;32.650;-16.902;2023-01-31T06:09:15;102159.22;;;10.61;72.18
61026;BME280;46911;32.650;-16.902;2023-01-31T06:11:16;102126.94;;;10.47;71.64
61026;BME280;46911;32.650;-16.902;2023-01-31T06:13:18;102156.31;;;10.66;71.72
61026;BME280;46911;32.650;-16.902;2023-01-31T06:15:18;102159.06;;;10.64;71.47
61026;BME280;46911;32.650;-16.902;2023-01-31T06:17:19;102158.31;;;10.61;71.53
61026;BME280;46911;32.650;-16.902;2023-01-31T06:19:23;102161.06;;;10.59;71.50
61026;BME280;46911;32.650;-16.902;2023-01-31T06:21:24;102146.34;;;10.50;71.75
61026;BME280;46911;32.650;-16.902;2023-01-31T06:23:28;102149.13;;;10.47;71.87
61026;BME280;46911;32.650;-16.902;2023-01-31T06:25:29;102161.56;;;10.48;72.04
61026;BME280;46911;32.650;-16.902;2023-01-31T06:27:31;102177.69;;;10.45;72.69
61026;BME280;46911;32.650;-16.902;2023-01-31T06:29:33;102159.47;;;10.34;72.61
61026;BME280;46911;32.650;-16.902;2023-01-31T06:31:34;102156.00;;;10.32;72.87
61026;BME280;46911;32.650;-16.902;2023-01-31T06:33:37;102170.09;;;10.36;73.21
61026;BME280;46911;32.650;-16.902;2023-01-31T06:35:45;102161.25;;;10.34;73.02
61026;BME280;46911;32.650;-16.902;2023-01-31T06:37:46;102159.59;;;10.31;73.23
61026;BME280;46911;32.650;-16.902;2023-01-31T06:39:47;102161.41;;;10.31;73.91
61026;BME280;46911;32.650;-16.902;2023-01-31T06:41:48;102155.41;;;10.26;74.15
61026;BME280;46911;32.650;-16.902;2023-01-31T06:43:51;102171.03;;;10.35;74.07
61026;BME280;46911;32.650;-16.902;2023-01-31T06:45:52;102175.28;;;10.39;74.09
61026;BME280;46911;32.650;-16.902;2023-01-31T06:47:53;102176.19;;;10.40;73.98
61026;BME280;46911;32.650;-16.902;2023-01-31T06:49:56;102175.75;;;10.49;73.57
61026;BME280;46911;32.650;-16.902;2023-01-31T06:51:57;102184.91;;;10.64;72.98
61026;BME280;46911;32.650;-16.902;2023-01-31T06:54:00;102171.56;;;10.64;72.72
61026;BME280;46911;32.650;-16.902;2023-01-31T06:56:04;102190.25;;;10.83;72.22
61026;BME280;46911;32.650;-16.902;2023-01-31T06:58:05;102173.41;;;11.01;69.99
61026;BME280;46911;32.650;-16.902;2023-01-31T07:00:06;102171.06;;;11.13;69.91
61026;BME280;46911;32.650;-16.902;2023-01-31T07:02:10;102189.41;;;11.39;69.50
61026;BME280;46911;32.650;-16.902;2023-01-31T07:04:14;102175.03;;;11.42;69.45
61026;BME280;46911;32.650;-16.902;2023-01-31T07:06:15;102180.06;;;11.67;69.19
61026;BME280;46911;32.650;-16.902;2023-01-31T07:08:17;102177.41;;;11.85;68.85
61026;BME280;46911;32.650;-16.902;2023-01-31T07:10:20;102187.47;;;11.99;68.12
61026;BME280;46911;32.650;-16.902;2023-01-31T07:12:21;102185.72;;;12.15;67.45
61026;BME280;46911;32.650;-16.902;2023-01-31T07:14:22;102195.00;;;12.43;65.43
61026;BME280;46911;32.650;-16.902;2023-01-31T07:16:23;102181.31;;;12.49;64.84
61026;BME280;46911;32.650;-16.902;2023-01-31T07:18:25;102198.19;;;12.67;64.16
61026;BME280;46911;32.650;-16.902;2023-01-31T07:20:25;102182.75;;;12.72;63.56
61026;BME280;46911;32.650;-16.902;2023-01-31T07:22:27;102189.34;;;12.83;63.04
61026;BME280;46911;32.650;-16.902;2023-01-31T07:24:27;102193.91;;;12.81;63.03
61026;BME280;46911;32.650;-16.902;2023-01-31T07:26:32;102211.13;;;12.93;61.83
61026;BME280;46911;32.650;-16.902;2023-01-31T07:28:34;102205.69;;;12.94;61.44
61026;BME280;46911;32.650;-16.902;2023-01-31T07:30:37;102207.34;;;12.97;61.33
61026;BME280;46911;32.650;-16.902;2023-01-31T07:32:39;102205.38;;;13.00;61.19
61026;BME280;46911;32.650;-16.902;2023-01-31T07:34:40;102211.31;;;12.89;61.25
61026;BME280;46911;32.650;-16.902;2023-01-31T07:36:43;102201.69;;;12.69;61.64
61026;BME280;46911;32.650;-16.902;2023-01-31T07:38:44;102206.50;;;12.63;62.48
61026;BME280;46911;32.650;-16.902;2023-01-31T07:40:48;102199.56;;;12.41;63.14
61026;BME280;46911;32.650;-16.902;2023-01-31T07:42:59;102204.78;;;12.44;64.05
61026;BME280;46911;32.650;-16.902;2023-01-31T07:45:03;102210.50;;;12.36;64.10
61026;BME280;46911;32.650;-16.902;2023-01-31T07:47:04;102206.50;;;12.28;63.71
61026;BME280;46911;32.650;-16.902;2023-01-31T07:49:11;102213.59;;;12.29;62.67
61026;BME280;46911;32.650;-16.902;2023-01-31T07:51:14;102183.69;;;12.03;62.79
61026;BME280;46911;32.650;-16.902;2023-01-31T07:53:15;102203.81;;;12.10;62.77
61026;BME280;46911;32.650;-16.902;2023-01-31T07:55:16;102200.50;;;12.05;62.98
61026;BME280;46911;32.650;-16.902;2023-01-31T07:57:20;102213.19;;;12.01;63.11
61026;BME280;46911;32.650;-16.902;2023-01-31T07:59:21;102205.50;;;11.94;63.40
61026;BME280;46911;32.650;-16.902;2023-01-31T08:01:24;102208.38;;;11.89;63.89
61026;BME280;46911;32.650;-16.902;2023-01-31T08:03:44;102226.09;;;11.92;62.62
61026;BME280;46911;32.650;-16.902;2023-01-31T08:05:45;102222.47;;;11.93;62.18
61026;BME280;46911;32.650;-16.902;2023-01-31T08:07:46;102206.34;;;11.94;62.94
61026;BME280;46911;32.650;-16.902;2023-01-31T08:10:08;102206.31;;;11.96;63.06
61026;BME280;46911;32.650;-16.902;2023-01-31T08:12:09;102209.97;;;11.93;62.79
61026;BME280;46911;32.650;-16.902;2023-01-31T08:14:13;102229.16;;;12.03;62.96
61026;BME280;46911;32.650;-16.902;2023-01-31T08:16:18;102232.53;;;12.07;63.55
61026;BME280;46911;32.650;-16.902;2023-01-31T08:18:23;102231.19;;;11.98;63.64
61026;BME280;46911;32.650;-16.902;2023-01-31T08:20:27;102229.94;;;11.86;63.98
61026;BME280;46911;32.650;-16.902;2023-01-31T08:22:28;102242.28;;;11.88;65.00
61026;BME280;46911;32.650;-16.902;2023-01-31T08:24:29;102235.28;;;11.86;65.39
61026;BME280;46911;32.650;-16.902;2023-01-31T08:26:30;102239.13;;;11.80;65.63
61026;BME280;46911;32.650;-16.902;2023-01-31T08:28:32;102236.19;;;11.67;66.15
61026;BME280;46911;32.650;-16.902;2023-01-31T08:30:39;102238.09;;;11.65;66.20
61026;BME280;46911;32.650;-16.902;2023-01-31T08:32:43;102253.03;;;11.69;66.29
61026;BME280;46911;32.650;-16.902;2023-01-31T08:34:44;102238.53;;;11.56;66.29
61026;BME280;46911;32.650;-16.902;2023-01-31T08:36:45;102257.94;;;11.60;66.58
61026;BME280;46911;32.650;-16.902;2023-01-31T08:38:50;102230.34;;;11.59;66.40
61026;BME280;46911;32.650;-16.902;2023-01-31T08:40:59;102247.81;;;11.66;66.39
61026;BME280;46911;32.650;-16.902;2023-01-31T08:43:00;102210.34;;;11.49;65.91
61026;BME280;46911;32.650;-16.902;2023-01-31T08:45:01;102246.66;;;11.72;65.25
61026;BME280;46911;32.650;-16.902;2023-01-31T08:47:02;102241.91;;;11.79;65.12
61026;BME280;46911;32.650;-16.902;2023-01-31T08:49:06;102244.25;;;11.85;64.91
61026;BME280;46911;32.650;-16.902;2023-01-31T08:51:08;102259.41;;;12.03;64.96
61026;BME280;46911;32.650;-16.902;2023-01-31T08:53:09;102259.59;;;12.18;63.35
61026;BME280;46911;32.650;-16.902;2023-01-31T08:55:13;102260.81;;;12.30;62.41
61026;BME280;46911;32.650;-16.902;2023-01-31T08:57:19;102260.72;;;12.31;62.28
61026;BME280;46911;32.650;-16.902;2023-01-31T08:59:23;102257.97;;;12.33;62.63
61026;BME280;46911;32.650;-16.902;2023-01-31T09:01:24;102271.81;;;12.41;62.49
61026;BME280;46911;32.650;-16.902;2023-01-31T09:03:25;102262.00;;;12.42;62.43
61026;BME280;46911;32.650;-16.902;2023-01-31T09:05:28;102281.84;;;12.55;62.51
61026;BME280;46911;32.650;-16.902;2023-01-31T09:07:30;102276.63;;;12.52;62.44
61026;BME280;46911;32.650;-16.902;2023-01-31T09:09:31;102284.44;;;12.56;62.69
61026;BME280;46911;32.650;-16.902;2023-01-31T09:11:31;102276.69;;;12.50;62.75
61026;BME280;46911;32.650;-16.902;2023-01-31T09:13:35;102279.28;;;12.52;62.96
61026;BME280;46911;32.650;-16.902;2023-01-31T09:15:36;102290.56;;;12.59;63.32
61026;BME280;46911;32.650;-16.902;2023-01-31T09:17:40;102284.03;;;12.64;63.64
61026;BME280;46911;32.650;-16.902;2023-01-31T09:19:41;102282.47;;;12.60;63.72
61026;BME280;46911;32.650;-16.902;2023-01-31T09:21:45;102280.38;;;12.65;63.90
61026;BME280;46911;32.650;-16.902;2023-01-31T09:23:47;102295.03;;;12.76;63.83
61026;BME280;46911;32.650;-16.902;2023-01-31T09:25:53;102304.72;;;12.78;63.92
61026;BME280;46911;32.650;-16.902;2023-01-31T09:27:54;102309.88;;;12.83;64.00
61026;BME280;46911;32.650;-16.902;2023-01-31T09:29:58;102311.00;;;12.95;63.93
61026;BME280;46911;32.650;-16.902;2023-01-31T09:31:59;102311.22;;;13.07;63.63
61026;BME280;46911;32.650;-16.902;2023-01-31T09:34:00;102314.91;;;13.22;63.79
61026;BME280;46911;32.650;-16.902;2023-01-31T09:36:13;102311.44;;;13.38;63.48
61026;BME280;46911;32.650;-16.902;2023-01-31T09:38:14;102317.69;;;13.54;62.98
61026;BME280;46911;32.650;-16.902;2023-01-31T09:40:20;102310.34;;;13.58;63.11
61026;BME280;46911;32.650;-16.902;2023-01-31T09:42:34;102310.34;;;13.58;62.78
61026;BME280;46911;32.650;-16.902;2023-01-31T09:44:42;102307.84;;;13.71;62.40
61026;BME280;46911;32.650;-16.902;2023-01-31T09:46:51;102302.03;;;13.79;62.00
61026;BME280;46911;32.650;-16.902;2023-01-31T09:48:55;102315.53;;;14.09;61.34
61026;BME280;46911;32.650;-16.902;2023-01-31T09:50:58;102310.94;;;14.27;61.17
61026;BME280;46911;32.650;-16.902;2023-01-31T09:52:59;102308.97;;;14.45;59.99
61026;BME280;46911;32.650;-16.902;2023-01-31T09:55:03;102312.25;;;14.50;59.67
61026;BME280;46911;32.650;-16.902;2023-01-31T09:57:49;102305.66;;;14.56;59.54
61026;BME280;46911;32.650;-16.902;2023-01-31T10:00:08;102308.63;;;14.67;59.42
61026;BME280;46911;32.650;-16.902;2023-01-31T10:07:16;102310.41;;;15.55;58.05
61026;BME280;46911;32.650;-16.902;2023-01-31T10:09:41;102320.00;;;15.88;57.32
61026;BME280;46911;32.650;-16.902;2023-01-31T10:14:53;102318.66;;;16.63;55.07
61026;BME280;46911;32.650;-16.902;2023-01-31T10:17:08;102316.56;;;16.94;54.52
61026;BME280;46911;32.650;-16.902;2023-01-31T10:19:19;102318.94;;;17.24;53.84
61026;BME280;46911;32.650;-16.902;2023-01-31T10:21:30;102307.56;;;17.57;52.42
61026;BME280;46911;32.650;-16.902;2023-01-31T10:23:33;102322.03;;;18.06;51.18
61026;BME280;46911;32.650;-16.902;2023-01-31T10:27:48;102315.19;;;18.73;48.89
61026;BME280;46911;32.650;-16.902;2023-01-31T10:29:59;102309.97;;;19.06;48.43
61026;BME280;46911;32.650;-16.902;2023-01-31T10:32:18;102312.69;;;19.40;47.77
61026;BME280;46911;32.650;-16.902;2023-01-31T10:34:42;102303.59;;;19.75;46.42
61026;BME280;46911;32.650;-16.902;2023-01-31T10:39:19;102304.78;;;20.58;41.70
61026;BME280;46911;32.650;-16.902;2023-01-31T10:44:00;102308.06;;;22.17;37.09
61026;BME280;46911;32.650;-16.902;2023-01-31T10:46:11;102297.38;;;23.02;36.50
61026;BME280;46911;32.650;-16.902;2023-01-31T10:48:20;102301.19;;;23.84;34.74
61026;BME280;46911;32.650;-16.902;2023-01-31T10:52:54;102305.13;;;25.59;31.83
61026;BME280;46911;32.650;-16.902;2023-01-31T10:57:41;102307.16;;;26.90;28.17
61026;BME280;46911;32.650;-16.902;2023-01-31T10:59:46;102295.94;;;27.25;28.09
61026;BME280;46911;32.650;-16.902;2023-01-31T11:01:50;102303.22;;;28.12;26.34
61026;BME280;46911;32.650;-16.902;2023-01-31T11:04:32;102310.78;;;28.33;26.19
61026;BME280;46911;32.650;-16.902;2023-01-31T11:06:39;102302.34;;;26.84;28.60
61026;BME280;46911;32.650;-16.902;2023-01-31T11:08:56;102305.94;;;27.01;27.68
61026;BME280;46911;32.650;-16.902;2023-01-31T11:11:05;102297.97;;;27.39;27.08
61026;BME280;46911;32.650;-16.902;2023-01-31T11:13:36;102306.13;;;26.92;27.46
61026;BME280;46911;32.650;-16.902;2023-01-31T11:15:47;102311.78;;;26.40;28.45
61026;BME280;46911;32.650;-16.902;2023-01-31T11:17:57;102316.56;;;26.22;27.81
61026;BME280;46911;32.650;-16.902;2023-01-31T11:20:27;102308.06;;;25.82;28.05
61026;BME280;46911;32.650;-16.902;2023-01-31T11:22:49;102297.03;;;26.91;26.42
61026;BME280;46911;32.650;-16.902;2023-01-31T11:24:58;102294.88;;;27.43;26.09
61026;BME280;46911;32.650;-16.902;2023-01-31T11:27:08;102291.44;;;28.50;25.68
61026;BME280;46911;32.650;-16.902;2023-01-31T11:29:18;102279.94;;;27.45;26.88
61026;BME280;46911;32.650;-16.902;2023-01-31T11:31:33;102289.53;;;26.85;28.21
61026;BME280;46911;32.650;-16.902;2023-01-31T11:35:50;102296.22;;;27.47;26.18
61026;BME280;46911;32.650;-16.902;2023-01-31T11:37:57;102299.13;;;26.89;26.95
61026;BME280;46911;32.650;-16.902;2023-01-31T11:42:22;102307.47;;;23.95;30.52
61026;BME280;46911;32.650;-16.902;2023-01-31T11:44:24;102300.81;;;23.14;31.41
61026;BME280;46911;32.650;-16.902;2023-01-31T11:46:28;102300.38;;;23.74;31.39